Time;durP1;ratioP1;P1;durP2;ratioP2;P2;SDS_P1;SDS_P2;PMS_P1;PMS_P2;Temp;Humidity;BMP_temperature;BMP_pressure;BME280_temperature;BME280_humidity;BME280_pressure;Samples;Min_cycle;Max_cycle;Signal;HPM_P1;HPM_P2
2024/03/19 00:01:26;;;;;;;;;;;9.60;15.90;;;;;;5017520;28;19908;-78
2024/03/19 00:03:51;;;;;;;;;;;9.60;14.00;;;;;;5060843;28;19961;-78
2024/03/19 00:06:17;;;;;;;;;;;9.60;18.40;;;;;;5067252;28;19912;-78
2024/03/19 00:09:03;;;;;;;;;;;9.60;16.40;;;;;;5035122;28;19971;-78
2024/03/19 00:11:29;;;;;;;;;;;9.60;19.30;;;;;;5036917;28;19912;-78
2024/03/19 00:13:56;;;;;;;;;;;9.70;16.00;;;;;;5057655;28;19905;-79
2024/03/19 00:16:38;;;;;;;;;;;9.70;15.60;;;;;;5057973;28;19904;-77
2024/03/19 00:19:14;;;;;;;;;;;9.70;18.30;;;;;;5039739;28;19905;-77
2024/03/19 00:21:50;;;;;;;;;;;9.70;19.50;;;;;;5046461;28;19908;-77
2024/03/19 00:24:20;;;;;;;;;;;9.70;18.50;;;;;;5057753;28;19966;-77
2024/03/19 00:26:46;;;;;;;;;;;9.70;17.40;;;;;;5043238;28;19971;-77
2024/03/19 00:29:11;;;;;;;;;;;9.80;17.20;;;;;;5047394;28;19951;-77
2024/03/19 00:31:39;;;;;;;;;;;9.60;15.00;;;;;;5056832;28;19975;-77
2024/03/19 00:34:14;;;;;;;;;;;9.70;17.70;;;;;;5053880;28;19905;-77
2024/03/19 00:36:39;;;;;;;;;;;9.70;16.80;;;;;;5054971;28;19943;-77
2024/03/19 00:39:10;;;;;;;;;;;9.70;13.00;;;;;;5019685;28;19944;-77
2024/03/19 00:41:38;;;;;;;;;;;9.70;15.80;;;;;;5057271;28;19908;-77
2024/03/19 00:44:08;;;;;;;;;;;9.60;14.80;;;;;;5039354;28;19905;-77
2024/03/19 00:46:50;;;;;;;;;;;9.70;17.30;;;;;;5043355;28;19919;-77
2024/03/19 00:49:15;;;;;;;;;;;9.70;13.70;;;;;;5035714;28;19909;-77
2024/03/19 00:51:44;;;;;;;;;;;9.70;15.70;;;;;;5043747;28;19912;-77
2024/03/19 00:54:26;;;;;;;;;;;9.80;14.40;;;;;;5057531;28;20414;-77
2024/03/19 00:56:51;;;;;;;;;;;9.80;10.90;;;;;;5037295;28;19939;-77
2024/03/19 00:59:38;;;;;;;;;;;9.80;13.60;;;;;;5042251;28;19909;-77
2024/03/19 01:02:38;;;;;;;;;;;9.80;14.70;;;;;;5048173;28;19912;-78
2024/03/19 01:05:08;;;;;;;;;;;9.80;14.20;;;;;;5047072;28;19909;-78
2024/03/19 01:08:02;;;;;;;;;;;9.80;13.60;;;;;;5051060;28;20010;-78
2024/03/19 01:10:44;;;;;;;;;;;9.80;12.90;;;;;;5053075;28;19916;-78
2024/03/19 01:13:14;;;;;;;;;;;9.70;10.10;;;;;;5035169;28;19905;-78
2024/03/19 01:15:40;;;;;;;;;;;9.60;13.10;;;;;;5050114;28;19905;-78
2024/03/19 01:18:14;;;;;;;;;;;9.50;11.40;;;;;;5045775;28;19928;-78
2024/03/19 01:20:44;;;;;;;;;;;9.40;12.30;;;;;;5020466;28;19963;-78
2024/03/19 01:23:26;;;;;;;;;;;9.30;12.10;;;;;;5036595;28;20376;-78
2024/03/19 01:25:56;;;;;;;;;;;9.20;9.70;;;;;;5036711;28;19909;-78
2024/03/19 01:28:26;;;;;;;;;;;9.20;11.60;;;;;;5038138;28;19920;-78
2024/03/19 01:30:52;;;;;;;;;;;9.10;10.00;;;;;;5047165;28;20380;-78
2024/03/19 01:33:17;;;;;;;;;;;9.00;7.50;;;;;;5049406;28;19908;-78
2024/03/19 01:35:44;;;;;;;;;;;8.90;7.30;;;;;;5035696;28;19996;-78
2024/03/19 01:38:10;;;;;;;;;;;8.80;9.50;;;;;;5036966;28;20356;-78
2024/03/19 01:40:36;;;;;;;;;;;8.60;8.70;;;;;;5047993;28;19917;-78
2024/03/19 01:43:08;;;;;;;;;;;8.60;11.20;;;;;;5056099;28;19911;-78
2024/03/19 01:45:38;;;;;;;;;;;8.60;11.50;;;;;;5046781;28;20273;-78
2024/03/19 01:48:15;;;;;;;;;;;8.50;11.30;;;;;;5043389;28;20453;-78
2024/03/19 01:50:41;;;;;;;;;;;8.40;10.90;;;;;;5044198;28;20395;-78
2024/03/19 01:53:32;;;;;;;;;;;8.30;8.10;;;;;;5035931;28;19905;-78
2024/03/19 01:56:02;;;;;;;;;;;8.30;11.30;;;;;;5018231;28;19911;-78
2024/03/19 01:58:38;;;;;;;;;;;8.20;10.00;;;;;;5045075;28;20249;-78
2024/03/19 02:01:08;;;;;;;;;;;8.10;12.50;;;;;;5040157;28;19905;-78
2024/03/19 02:03:51;;;;;;;;;;;8.00;10.70;;;;;;5054095;28;19910;-78
2024/03/19 02:06:16;;;;;;;;;;;8.00;12.90;;;;;;5042598;28;19913;-78
2024/03/19 02:09:14;;;;;;;;;;;7.90;10.10;;;;;;5055790;28;19959;-78
2024/03/19 02:11:50;;;;;;;;;;;7.80;12.90;;;;;;5044540;28;19921;-78
2024/03/19 02:14:32;;;;;;;;;;;7.80;13.30;;;;;;5042091;28;19919;-78
2024/03/19 02:17:02;;;;;;;;;;;7.80;14.80;;;;;;5037104;28;19905;-77
2024/03/19 02:19:38;;;;;;;;;;;7.70;16.00;;;;;;5046916;28;19955;-77
2024/03/19 02:22:04;;;;;;;;;;;7.80;16.90;;;;;;5035746;28;19911;-77
2024/03/19 02:24:50;;;;;;;;;;;7.80;21.10;;;;;;5029619;28;19909;-77
2024/03/19 02:27:16;;;;;;;;;;;7.90;25.00;;;;;;5044179;28;19982;-77
2024/03/19 02:29:43;;;;;;;;;;;8.00;26.80;;;;;;5035493;28;19905;-77
2024/03/19 02:32:20;;;;;;;;;;;8.20;29.50;;;;;;5041819;28;20359;-77
2024/03/19 02:34:45;;;;;;;;;;;8.20;32.40;;;;;;5049884;28;20259;-77
2024/03/19 02:37:11;;;;;;;;;;;8.30;30.20;;;;;;5054214;28;19995;-77
2024/03/19 02:39:37;;;;;;;;;;;8.40;29.60;;;;;;5032368;28;19908;-77
2024/03/19 02:42:08;;;;;;;;;;;8.40;30.20;;;;;;5035164;28;19931;-77
2024/03/19 02:44:34;;;;;;;;;;;8.50;30.40;;;;;;5051320;28;19916;-77
2024/03/19 02:47:20;;;;;;;;;;;8.60;29.60;;;;;;5040418;28;19914;-78
2024/03/19 02:49:45;;;;;;;;;;;8.70;21.00;;;;;;5047569;28;19930;-77
2024/03/19 02:52:11;;;;;;;;;;;8.70;22.60;;;;;;5052619;28;20395;-77
2024/03/19 02:54:38;;;;;;;;;;;8.80;19.70;;;;;;5043257;28;19909;-77
2024/03/19 02:57:04;;;;;;;;;;;8.80;20.70;;;;;;5035308;28;19911;-77
2024/03/19 02:59:29;;;;;;;;;;;8.90;20.20;;;;;;5038580;28;19991;-77
2024/03/19 03:01:56;;;;;;;;;;;9.00;18.10;;;;;;5045146;28;19908;-77
2024/03/19 03:04:32;;;;;;;;;;;9.00;17.70;;;;;;5047992;28;19962;-77
2024/03/19 03:07:08;;;;;;;;;;;9.10;17.50;;;;;;5042929;28;19909;-77
2024/03/19 03:09:44;;;;;;;;;;;9.00;20.50;;;;;;5037250;28;19915;-77
2024/03/19 03:12:10;;;;;;;;;;;9.20;20.60;;;;;;5038452;28;19913;-77
2024/03/19 03:14:38;;;;;;;;;;;9.20;22.80;;;;;;5016997;28;19974;-77
2024/03/19 03:17:08;;;;;;;;;;;9.30;20.60;;;;;;5036287;28;19963;-77
2024/03/19 03:19:38;;;;;;;;;;;9.30;16.70;;;;;;5017423;28;19959;-77
2024/03/19 03:22:04;;;;;;;;;;;9.40;18.60;;;;;;5049281;28;19909;-77
2024/03/19 03:24:39;;;;;;;;;;;9.40;17.60;;;;;;5042825;28;20004;-77
2024/03/19 03:27:27;;;;;;;;;;;9.50;14.80;;;;;;5034757;28;20301;-77
2024/03/19 03:29:53;;;;;;;;;;;9.60;13.30;;;;;;5048357;28;19905;-77
2024/03/19 03:32:26;;;;;;;;;;;9.60;15.00;;;;;;5049414;28;19978;-77
2024/03/19 03:34:56;;;;;;;;;;;9.60;9.50;;;;;;5054672;28;19904;-77
2024/03/19 03:37:22;;;;;;;;;;;9.60;11.80;;;;;;5045388;28;19905;-77
2024/03/19 03:39:50;;;;;;;;;;;9.70;13.90;;;;;;5051505;28;20370;-77
2024/03/19 03:42:20;;;;;;;;;;;9.70;10.50;;;;;;5044258;28;20392;-77
2024/03/19 03:44:45;;;;;;;;;;;9.70;12.20;;;;;;5034098;28;20003;-77
2024/03/19 03:47:11;;;;;;;;;;;9.80;11.10;;;;;;5033795;28;20008;-76
2024/03/19 03:49:38;;;;;;;;;;;9.70;10.40;;;;;;5050793;28;19909;-78
2024/03/19 03:52:04;;;;;;;;;;;9.80;11.00;;;;;;5035398;28;19954;-78
2024/03/19 03:54:32;;;;;;;;;;;9.90;6.70;;;;;;5040672;28;19905;-78
2024/03/19 03:57:02;;;;;;;;;;;9.90;9.00;;;;;;5051206;28;20360;-78
2024/03/19 03:59:41;;;;;;;;;;;9.90;7.90;;;;;;5033833;28;19905;-78
2024/03/19 04:02:14;;;;;;;;;;;9.90;7.50;;;;;;5028435;28;20003;-78
2024/03/19 04:07:44;;;;;;;;;;;9.90;7.20;;;;;;5043416;28;19919;-78
2024/03/19 04:10:10;;;;;;;;;;;9.90;6.50;;;;;;5033498;28;19924;-78
2024/03/19 04:12:44;;;;;;;;;;;10.00;8.50;;;;;;5052763;28;19958;-78
2024/03/19 04:15:11;;;;;;;;;;;10.00;7.00;;;;;;5053780;28;19963;-78
2024/03/19 04:17:50;;;;;;;;;;;10.00;5.70;;;;;;5036960;28;19913;-78
2024/03/19 04:20:39;;;;;;;;;;;10.00;5.80;;;;;;5038679;28;19905;-78
2024/03/19 04:23:26;;;;;;;;;;;10.00;7.20;;;;;;5016023;28;19905;-81
2024/03/19 04:25:52;;;;;;;;;;;10.00;7.20;;;;;;5043127;28;19920;-78
2024/03/19 04:28:26;;;;;;;;;;;10.00;5.00;;;;;;5034421;28;20318;-78
2024/03/19 04:30:56;;;;;;;;;;;10.00;7.20;;;;;;5045079;28;19905;-78
2024/03/19 04:36:32;;;;;;;;;;;10.00;10.10;;;;;;5043842;28;21061;-76
2024/03/19 04:39:12;;;;;;;;;;;10.00;10.50;;;;;;5016247;28;19916;-78
2024/03/19 04:41:39;;;;;;;;;;;10.00;11.50;;;;;;5036169;28;19913;-77
2024/03/19 04:44:08;;;;;;;;;;;10.10;12.50;;;;;;5042863;28;19912;-77
2024/03/19 04:46:38;;;;;;;;;;;10.20;11.50;;;;;;5049354;28;19920;-77
2024/03/19 04:49:14;;;;;;;;;;;10.20;10.80;;;;;;5037156;28;19917;-77
2024/03/19 04:51:40;;;;;;;;;;;10.20;9.70;;;;;;5036488;28;19971;-77
2024/03/19 04:54:20;;;;;;;;;;;10.20;9.50;;;;;;5033835;28;19972;-77
2024/03/19 04:56:50;;;;;;;;;;;10.30;9.80;;;;;;5046372;28;19916;-79
2024/03/19 04:59:16;;;;;;;;;;;10.30;9.70;;;;;;5041292;28;20344;-77
2024/03/19 05:01:41;;;;;;;;;;;10.30;8.00;;;;;;5037086;28;19912;-77
2024/03/19 05:04:08;;;;;;;;;;;10.30;11.20;;;;;;5053638;28;19999;-78
2024/03/19 05:06:34;;;;;;;;;;;10.30;10.40;;;;;;5036870;28;19913;-78
2024/03/19 05:08:59;;;;;;;;;;;10.30;13.00;;;;;;5036165;28;19916;-78
2024/03/19 05:11:26;;;;;;;;;;;10.30;13.50;;;;;;5036840;28;19912;-78
2024/03/19 05:14:02;;;;;;;;;;;10.40;10.80;;;;;;5036678;28;19913;-79
2024/03/19 05:16:28;;;;;;;;;;;10.40;13.10;;;;;;5046800;28;19995;-78
2024/03/19 05:18:56;;;;;;;;;;;10.40;12.10;;;;;;5046553;28;19995;-78
2024/03/19 05:21:38;;;;;;;;;;;10.40;12.60;;;;;;5036715;28;19952;-78
2024/03/19 05:24:26;;;;;;;;;;;10.50;13.10;;;;;;5052040;28;19999;-80
2024/03/19 05:27:08;;;;;;;;;;;10.50;13.40;;;;;;5041256;28;19912;-78
2024/03/19 05:29:44;;;;;;;;;;;10.50;9.80;;;;;;5047264;28;19967;-79
2024/03/19 05:32:38;;;;;;;;;;;10.50;12.30;;;;;;5043047;28;19905;-78
2024/03/19 05:35:14;;;;;;;;;;;10.60;12.70;;;;;;5035414;28;20324;-78
2024/03/19 05:37:50;;;;;;;;;;;10.60;11.40;;;;;;5018406;28;20276;-78
2024/03/19 05:40:16;;;;;;;;;;;10.60;10.90;;;;;;5020413;28;19916;-78
2024/03/19 05:42:57;;;;;;;;;;;10.50;12.10;;;;;;5036236;28;19913;-78
2024/03/19 05:45:26;;;;;;;;;;;10.60;15.00;;;;;;5056488;28;19913;-79
2024/03/19 05:48:02;;;;;;;;;;;10.60;7.50;;;;;;5043140;28;19912;-79
2024/03/19 05:51:02;;;;;;;;;;;10.70;6.60;;;;;;5047789;28;19905;-79
2024/03/19 05:53:32;;;;;;;;;;;10.70;5.50;;;;;;5043169;28;19916;-77
2024/03/19 05:56:04;;;;;;;;;;;10.70;7.80;;;;;;5046034;28;19916;-78
2024/03/19 05:58:30;;;;;;;;;;;10.80;5.70;;;;;;5043911;28;19921;-77
2024/03/19 06:00:56;;;;;;;;;;;10.80;8.20;;;;;;5036261;28;20015;-77
2024/03/19 06:03:22;;;;;;;;;;;10.90;6.90;;;;;;5040002;28;19987;-77
2024/03/19 06:06:08;;;;;;;;;;;10.90;4.70;;;;;;5052053;28;19915;-76
2024/03/19 06:08:39;;;;;;;;;;;10.90;7.10;;;;;;5054842;28;20272;-77
2024/03/19 06:11:08;;;;;;;;;;;11.00;11.10;;;;;;5054384;28;19999;-77
2024/03/19 06:13:34;;;;;;;;;;;11.10;7.40;;;;;;5051409;28;19908;-77
2024/03/19 06:16:08;;;;;;;;;;;11.10;5.40;;;;;;5049171;28;19905;-77
2024/03/19 06:18:38;;;;;;;;;;;11.10;5.60;;;;;;5049794;28;19967;-77
2024/03/19 06:21:04;;;;;;;;;;;11.20;4.00;;;;;;5047605;28;19939;-77
2024/03/19 06:23:29;;;;;;;;;;;11.20;4.30;;;;;;5048020;28;19939;-77
2024/03/19 06:25:55;;;;;;;;;;;11.20;3.10;;;;;;5052462;28;20000;-77
2024/03/19 06:28:20;;;;;;;;;;;11.30;1.00;;;;;;5052907;28;19940;-77
2024/03/19 06:33:50;;;;;;;;;;;11.40;1.00;;;;;;5051474;28;19951;-78
2024/03/19 06:36:20;;;;;;;;;;;11.30;1.00;;;;;;5052012;28;19955;-78
2024/03/19 06:38:47;;;;;;;;;;;11.40;1.00;;;;;;5055046;28;19970;-78
2024/03/19 06:41:20;;;;;;;;;;;11.40;1.00;;;;;;5050982;28;19920;-77
2024/03/19 06:43:46;;;;;;;;;;;11.50;1.00;;;;;;5041066;28;19944;-77
2024/03/19 06:49:16;;;;;;;;;;;11.50;1.00;;;;;;5045550;28;19950;-77
2024/03/19 06:51:56;;;;;;;;;;;11.50;1.00;;;;;;5048783;28;20400;-78
2024/03/19 06:54:26;;;;;;;;;;;11.50;1.00;;;;;;5052731;28;19908;-79
2024/03/19 06:56:52;;;;;;;;;;;11.50;1.00;;;;;;5045405;28;19909;-80
2024/03/19 06:59:27;;;;;;;;;;;11.50;1.00;;;;;;5042623;28;19915;-80
2024/03/19 07:02:11;;;;;;;;;;;11.50;1.00;;;;;;5038931;28;19916;-79
2024/03/19 07:04:45;;;;;;;;;;;11.50;1.00;;;;;;5044317;28;19915;-80
2024/03/19 07:07:15;;;;;;;;;;;11.60;1.00;;;;;;5054729;28;19909;-77
2024/03/19 07:09:56;;;;;;;;;;;11.70;1.00;;;;;;5049394;28;19904;-79
2024/03/19 07:12:56;;;;;;;;;;;11.80;1.00;;;;;;5047529;28;19913;-80
2024/03/19 07:15:38;;;;;;;;;;;11.90;1.00;;;;;;5050180;28;19909;-79
2024/03/19 07:18:04;;;;;;;;;;;11.90;1.00;;;;;;5043174;28;19994;-79
2024/03/19 07:20:39;;;;;;;;;;;12.00;1.00;;;;;;5052234;28;20008;-78
2024/03/19 07:23:20;;;;;;;;;;;12.00;1.00;;;;;;5054466;28;19905;-89
2024/03/19 07:25:56;;;;;;;;;;;12.10;1.00;;;;;;5053700;28;19994;-82
2024/03/19 07:28:56;;;;;;;;;;;12.20;1.00;;;;;;5049886;28;19935;-84
2024/03/19 07:31:26;;;;;;;;;;;12.20;1.00;;;;;;5026995;28;19908;-79
2024/03/19 07:34:02;;;;;;;;;;;12.30;1.00;;;;;;5052221;28;19908;-81
2024/03/19 07:36:28;;;;;;;;;;;12.30;1.00;;;;;;5041903;28;19913;-76
2024/03/19 07:39:12;;;;;;;;;;;12.30;1.00;;;;;;5053792;28;19955;-80
2024/03/19 07:41:51;;;;;;;;;;;12.30;1.00;;;;;;5051039;28;20378;-76
2024/03/19 07:44:38;;;;;;;;;;;12.30;1.00;;;;;;5031465;28;19958;-78
2024/03/19 07:47:07;;;;;;;;;;;12.30;1.00;;;;;;5046837;28;20649;-75
2024/03/19 07:49:34;;;;;;;;;;;12.50;1.00;;;;;;5048014;28;19909;-78
2024/03/19 07:52:29;;;;;;;;;;;12.50;1.00;;;;;;5038569;28;19909;-83
2024/03/19 07:58:26;;;;;;;;;;;12.70;1.00;;;;;;5043655;28;19915;-86
2024/03/19 08:00:57;;;;;;;;;;;12.80;1.00;;;;;;5044761;28;19905;-82
2024/03/19 08:03:56;;;;;;;;;;;12.90;1.00;;;;;;5029446;28;19909;-81
2024/03/19 08:06:32;;;;;;;;;;;13.00;1.00;;;;;;5046752;28;20016;-81
2024/03/19 08:09:08;;;;;;;;;;;13.20;1.00;;;;;;5044706;28;19908;-81
2024/03/19 08:11:34;;;;;;;;;;;13.30;1.00;;;;;;5053455;28;19917;-82
2024/03/19 08:14:08;;;;;;;;;;;13.70;1.00;;;;;;5034758;28;19908;-79
2024/03/19 08:17:02;;;;;;;;;;;13.80;1.00;;;;;;5052730;28;19940;-79
2024/03/19 08:19:44;;;;;;;;;;;13.80;1.00;;;;;;5050059;28;19905;-78
2024/03/19 08:22:20;;;;;;;;;;;13.70;1.00;;;;;;5036329;28;19912;-77
2024/03/19 08:24:52;;;;;;;;;;;13.80;1.00;;;;;;5045728;28;19911;-77
2024/03/19 08:27:38;;;;;;;;;;;13.80;1.00;;;;;;5036004;28;19913;-77
2024/03/19 08:30:20;;;;;;;;;;;13.90;1.00;;;;;;5050022;28;19955;-77
2024/03/19 08:32:56;;;;;;;;;;;13.90;1.00;;;;;;5039394;28;20003;-77
2024/03/19 08:35:22;;;;;;;;;;;13.90;1.00;;;;;;5059179;28;20003;-77
2024/03/19 08:37:47;;;;;;;;;;;13.90;1.00;;;;;;5057111;28;19948;-79
2024/03/19 08:40:13;;;;;;;;;;;13.90;1.00;;;;;;5048291;28;19919;-80
2024/03/19 08:42:44;;;;;;;;;;;14.00;1.00;;;;;;5048276;28;19917;-77
2024/03/19 08:45:14;;;;;;;;;;;14.00;1.00;;;;;;5050206;28;19948;-78
2024/03/19 08:47:56;;;;;;;;;;;14.00;1.00;;;;;;5033911;28;19911;-79
2024/03/19 08:50:26;;;;;;;;;;;14.00;1.00;;;;;;5047178;28;19995;-78
2024/03/19 08:52:56;;;;;;;;;;;13.90;1.00;;;;;;5050622;28;19909;-79
2024/03/19 08:55:26;;;;;;;;;;;13.80;1.00;;;;;;5055951;28;20003;-79
2024/03/19 08:58:09;;;;;;;;;;;13.80;1.00;;;;;;5030547;28;19905;-79
2024/03/19 09:00:41;;;;;;;;;;;13.60;1.00;;;;;;5051611;28;19904;-79
2024/03/19 09:03:09;;;;;;;;;;;13.50;1.00;;;;;;5054185;28;20008;-79
2024/03/19 09:06:10;;;;;;;;;;;13.60;1.00;;;;;;5053929;28;19908;-79
2024/03/19 09:08:38;;;;;;;;;;;13.60;1.00;;;;;;4960783;28;19922;-78
2024/03/19 09:11:20;;;;;;;;;;;13.60;1.00;;;;;;4975747;28;19914;-78
2024/03/19 09:17:02;;;;;;;;;;;13.60;1.00;;;;;;4968130;28;19913;-79
2024/03/19 09:19:47;;;;;;;;;;;13.50;1.00;;;;;;4974701;28;20040;-79
2024/03/19 09:22:28;;;;;;;;;;;13.60;1.00;;;;;;4975797;28;19912;-78
2024/03/19 09:24:56;;;;;;;;;;;13.80;1.00;;;;;;4967082;28;19968;-79
2024/03/19 09:27:32;;;;;;;;;;;13.80;1.00;;;;;;4964089;28;20012;-79
2024/03/19 09:29:58;;;;;;;;;;;13.80;1.00;;;;;;4964234;28;19917;-78
2024/03/19 09:32:26;;;;;;;;;;;13.90;1.00;;;;;;4970001;28;19915;-79
2024/03/19 09:34:52;;;;;;;;;;;14.00;1.00;;;;;;4973728;28;19917;-79
2024/03/19 09:37:17;;;;;;;;;;;14.10;1.00;;;;;;4969199;28;19918;-78
2024/03/19 09:39:43;;;;;;;;;;;14.10;1.00;;;;;;4965423;28;19910;-79
2024/03/19 09:42:22;;;;;;;;;;;14.10;1.00;;;;;;4992380;28;19917;-79
2024/03/19 09:44:48;;;;;;;;;;;11.00;1.00;;;;;;5046316;28;20353;-79
2024/03/19 09:47:16;;;;;;;;;;;14.20;1.00;;;;;;5049937;28;19983;-78
2024/03/19 09:49:45;;;;;;;;;;;14.30;1.00;;;;;;5021503;28;20299;-75
2024/03/19 09:52:28;;;;;;;;;;;14.40;1.00;;;;;;5044132;28;19916;-78
2024/03/19 09:55:17;;;;;;;;;;;14.40;1.00;;;;;;5053852;28;20379;-77
2024/03/19 09:57:48;;;;;;;;;;;14.40;1.00;;;;;;5046935;28;19904;-76
2024/03/19 10:00:19;;;;;;;;;;;14.50;1.00;;;;;;5032564;28;20000;-76
2024/03/19 10:02:45;;;;;;;;;;;14.60;1.00;;;;;;5048196;28;20031;-75
2024/03/19 10:05:14;;;;;;;;;;;14.60;1.00;;;;;;5055464;28;19955;-76
2024/03/19 10:07:56;;;;;;;;;;;14.60;1.00;;;;;;5055433;28;19998;-75
2024/03/19 10:10:24;;;;;;;;;;;14.80;1.00;;;;;;5069543;28;19904;-76
2024/03/19 10:12:49;;;;;;;;;;;14.80;1.00;;;;;;5055155;28;20371;-76
2024/03/19 10:15:32;;;;;;;;;;;14.80;1.00;;;;;;5055123;28;19915;-77
2024/03/19 10:17:58;;;;;;;;;;;14.80;1.00;;;;;;5036773;28;19909;-81
2024/03/19 10:20:27;;;;;;;;;;;15.00;1.00;;;;;;5054735;28;19911;-82
2024/03/19 10:22:56;;;;;;;;;;;15.10;1.00;;;;;;5046152;28;19975;-81
2024/03/19 10:25:38;;;;;;;;;;;15.50;1.00;;;;;;5028251;28;19909;-78
2024/03/19 10:28:32;;;;;;;;;;;15.50;1.00;;;;;;5052904;28;19913;-79
2024/03/19 10:30:58;;;;;;;;;;;15.70;1.00;;;;;;5043980;28;20000;-79
2024/03/19 10:33:24;;;;;;;;;;;15.80;1.00;;;;;;5047619;28;19955;-81
2024/03/19 10:35:50;;;;;;;;;;;16.00;1.00;;;;;;5054875;28;19943;-79
2024/03/19 10:38:27;;;;;;;;;;;16.30;1.00;;;;;;5025938;28;19971;-78
2024/03/19 10:40:56;;;;;;;;;;;16.50;1.00;;;;;;5046063;28;19915;-80
2024/03/19 10:43:27;;;;;;;;;;;16.50;1.00;;;;;;5053254;28;19908;-79
2024/03/19 10:45:58;;;;;;;;;;;16.40;1.00;;;;;;5042492;28;19908;-80
2024/03/19 10:48:27;;;;;;;;;;;16.30;1.00;;;;;;5039900;28;19905;-80
2024/03/19 10:50:56;;;;;;;;;;;16.20;1.00;;;;;;5053437;28;19991;-80
2024/03/19 10:53:29;;;;;;;;;;;16.20;1.00;;;;;;5030851;28;19996;-80
2024/03/19 10:55:58;;;;;;;;;;;16.30;1.00;;;;;;5047549;28;20328;-79
2024/03/19 10:58:26;;;;;;;;;;;16.60;1.00;;;;;;5052461;28;20391;-80
2024/03/19 11:01:04;;;;;;;;;;;16.70;1.00;;;;;;5043537;28;19909;-80
2024/03/19 11:03:32;;;;;;;;;;;16.70;1.00;;;;;;5035057;28;19995;-79
2024/03/19 11:06:29;;;;;;;;;;;16.80;1.00;;;;;;5034978;28;19919;-80
2024/03/19 11:08:56;;;;;;;;;;;16.90;1.00;;;;;;4964734;28;19928;-80
2024/03/19 11:11:35;;;;;;;;;;;16.70;1.00;;;;;;4971326;28;19957;-80
2024/03/19 11:14:16;;;;;;;;;;;16.70;1.00;;;;;;4969332;28;19914;-79
2024/03/19 11:16:41;;;;;;;;;;;16.50;1.00;;;;;;4948766;28;20404;-79
2024/03/19 11:19:38;;;;;;;;;;;16.50;1.00;;;;;;4948909;28;19918;-79
2024/03/19 11:22:08;;;;;;;;;;;16.40;1.00;;;;;;4965694;28;19941;-79
2024/03/19 11:24:50;;;;;;;;;;;16.40;1.00;;;;;;4954398;28;19999;-81
2024/03/19 11:27:20;;;;;;;;;;;16.50;1.00;;;;;;4938667;28;19941;-81
2024/03/19 11:30:08;;;;;;;;;;;16.90;1.00;;;;;;4954715;28;19910;-81
2024/03/19 11:35:38;;;;;;;;;;;17.60;1.00;;;;;;4963070;28;20612;-81
2024/03/19 11:38:20;;;;;;;;;;;17.90;1.00;;;;;;4964318;28;19918;-78
2024/03/19 11:40:47;;;;;;;;;;;18.20;1.00;;;;;;4964599;28;19914;-76
2024/03/19 11:43:20;;;;;;;;;;;18.50;1.00;;;;;;4956520;28;19906;-78
2024/03/19 11:45:49;;;;;;;;;;;18.50;1.00;;;;;;5020628;28;20361;-77
2024/03/19 11:48:44;;;;;;;;;;;18.50;1.00;;;;;;5049200;28;19905;-78
2024/03/19 11:51:14;;;;;;;;;;;18.50;1.00;;;;;;5032065;28;19941;-77
2024/03/19 11:57:08;;;;;;;;;;;18.10;1.00;;;;;;5049277;28;19955;-78
2024/03/19 11:59:44;;;;;;;;;;;18.20;1.00;;;;;;5048868;28;19908;-78
2024/03/19 12:02:26;;;;;;;;;;;18.50;1.00;;;;;;5061258;28;19905;-79
2024/03/19 12:05:26;;;;;;;;;;;18.50;1.00;;;;;;5047753;28;19908;-78
2024/03/19 12:07:56;;;;;;;;;;;18.60;1.00;;;;;;5059778;28;19947;-78
2024/03/19 12:10:27;;;;;;;;;;;18.70;1.00;;;;;;5056542;28;19909;-78
2024/03/19 12:12:56;;;;;;;;;;;18.70;1.00;;;;;;5050970;28;19909;-78
2024/03/19 12:15:41;;;;;;;;;;;18.60;1.00;;;;;;5046757;28;19917;-78
2024/03/19 12:18:20;;;;;;;;;;;18.40;1.00;;;;;;5042619;28;20304;-78
2024/03/19 12:20:47;;;;;;;;;;;18.30;1.00;;;;;;5051829;28;19909;-78
2024/03/19 12:23:27;;;;;;;;;;;18.30;1.00;;;;;;5039512;28;19908;-77
2024/03/19 12:25:53;;;;;;;;;;;18.30;1.00;;;;;;5054864;28;19909;-77
2024/03/19 12:28:26;;;;;;;;;;;18.30;1.00;;;;;;5056165;28;19911;-77
2024/03/19 12:30:58;;;;;;;;;;;18.10;1.00;;;;;;5051279;28;20051;-76
2024/03/19 12:33:40;;;;;;;;;;;18.30;1.00;;;;;;5048383;28;19913;-77
2024/03/19 12:36:26;;;;;;;;;;;18.20;1.00;;;;;;5044181;28;19909;-76
2024/03/19 12:39:27;;;;;;;;;;;18.40;1.00;;;;;;5042563;28;19916;-79
2024/03/19 12:41:56;;;;;;;;;;;18.50;1.00;;;;;;5048229;28;19940;-82
2024/03/19 12:44:23;;;;;;;;;;;18.60;1.00;;;;;;5037416;28;19963;-82
2024/03/19 12:46:49;;;;;;;;;;;18.70;1.00;;;;;;5047571;28;19967;-81
2024/03/19 12:49:26;;;;;;;;;;;18.70;1.00;;;;;;5049926;28;19913;-82
2024/03/19 12:52:26;;;;;;;;;;;18.90;1.00;;;;;;5047076;28;20426;-81
2024/03/19 12:54:52;;;;;;;;;;;18.90;1.00;;;;;;5039429;28;19905;-80
2024/03/19 12:57:20;;;;;;;;;;;19.30;1.00;;;;;;5036646;28;19905;-79
2024/03/19 12:59:56;;;;;;;;;;;19.30;1.00;;;;;;5039558;28;19916;-79
2024/03/19 13:02:51;;;;;;;;;;;19.40;1.00;;;;;;5046593;28;19905;-79
2024/03/19 13:05:16;;;;;;;;;;;19.50;1.00;;;;;;5043786;28;20253;-80
2024/03/19 13:07:58;;;;;;;;;;;19.40;1.00;;;;;;5035558;28;19912;-80
2024/03/19 13:10:23;;;;;;;;;;;19.50;1.00;;;;;;5042716;28;20376;-74
2024/03/19 13:12:50;;;;;;;;;;;19.60;1.00;;;;;;5041736;28;19905;-75
2024/03/19 13:15:26;;;;;;;;;;;19.50;1.00;;;;;;5041806;28;19913;-78
2024/03/19 13:17:56;;;;;;;;;;;19.50;1.00;;;;;;5040712;28;20316;-78
2024/03/19 13:20:33;;;;;;;;;;;19.30;1.00;;;;;;5054273;28;19916;-78
2024/03/19 13:22:59;;;;;;;;;;;19.20;1.00;;;;;;5048731;28;19909;-75
2024/03/19 13:25:28;;;;;;;;;;;19.10;1.00;;;;;;5046420;28;20346;-78
2024/03/19 13:28:15;;;;;;;;;;;19.00;1.00;;;;;;5052348;28;19920;-78
2024/03/19 13:33:56;;;;;;;;;;;18.70;1.00;;;;;;5048033;28;19916;-78
2024/03/19 13:42:56;;;;;;;;;;;18.80;1.00;;;;;;5042188;28;19920;-78
2024/03/19 13:48:56;;;;;;;;;;;18.80;1.00;;;;;;5052415;28;19927;-78
2024/03/19 13:51:32;;;;;;;;;;;18.70;1.00;;;;;;5054291;28;19909;-78
2024/03/19 13:54:06;;;;;;;;;;;18.80;1.00;;;;;;5026350;28;20272;-77
2024/03/19 13:56:42;;;;;;;;;;;19.00;1.00;;;;;;5041786;28;19904;-78
2024/03/19 13:59:26;;;;;;;;;;;19.00;1.00;;;;;;5035820;28;19959;-78
2024/03/19 14:02:03;;;;;;;;;;;18.90;1.00;;;;;;5049331;28;19905;-83
2024/03/19 14:04:30;;;;;;;;;;;19.00;1.00;;;;;;5041914;28;20319;-78
2024/03/19 14:07:08;;;;;;;;;;;18.90;1.00;;;;;;5047339;28;19917;-78
2024/03/19 14:09:59;;;;;;;;;;;19.20;1.00;;;;;;5047512;28;20015;-82
2024/03/19 14:12:39;;;;;;;;;;;19.20;1.00;;;;;;5041607;28;20368;-79
2024/03/19 14:18:45;;;;;;;;;;;19.30;1.00;;;;;;5034551;28;19916;-81
2024/03/19 14:21:15;;;;;;;;;;;19.70;1.00;;;;;;5032199;28;20372;-84
2024/03/19 14:23:41;;;;;;;;;;;19.70;1.00;;;;;;5038163;28;20441;-84
2024/03/19 14:26:10;;;;;;;;;;;19.80;1.00;;;;;;5043931;28;19913;-75
2024/03/19 14:28:36;;;;;;;;;;;19.90;1.00;;;;;;5050583;28;19908;-75
2024/03/19 14:31:02;;;;;;;;;;;20.10;1.00;;;;;;5039160;28;19909;-77
2024/03/19 14:33:31;;;;;;;;;;;20.20;1.00;;;;;;5036481;28;19999;-77
2024/03/19 14:35:57;;;;;;;;;;;20.20;1.00;;;;;;5042789;28;19908;-77
2024/03/19 14:38:27;;;;;;;;;;;19.90;1.00;;;;;;5036067;28;19915;-77
2024/03/19 14:40:56;;;;;;;;;;;19.90;1.00;;;;;;5042886;28;19962;-77
2024/03/19 14:43:33;;;;;;;;;;;19.80;1.00;;;;;;5039283;28;19948;-77
2024/03/19 14:45:59;;;;;;;;;;;19.80;1.00;;;;;;5035260;28;19959;-77
2024/03/19 14:48:27;;;;;;;;;;;19.70;1.00;;;;;;5045155;28;19936;-77
2024/03/19 14:50:53;;;;;;;;;;;19.40;1.00;;;;;;5050165;28;19915;-77
2024/03/19 14:53:19;;;;;;;;;;;19.40;1.00;;;;;;5042991;28;19954;-77
2024/03/19 14:55:45;;;;;;;;;;;19.50;1.00;;;;;;5017749;28;19996;-78
2024/03/19 14:58:10;;;;;;;;;;;19.50;1.00;;;;;;5042092;28;20427;-78
2024/03/19 15:00:36;;;;;;;;;;;19.40;1.00;;;;;;5024811;28;19909;-77
2024/03/19 15:03:09;;;;;;;;;;;19.40;1.00;;;;;;5038791;28;19985;-77
2024/03/19 15:05:35;;;;;;;;;;;19.40;1.00;;;;;;5029507;28;19904;-77
2024/03/19 15:08:14;;;;;;;;;;;19.40;1.00;;;;;;5035686;28;19915;-77
2024/03/19 15:16:36;;;;;;;;;;;18.90;1.00;;;;;;5112066;27;19912;-80
2024/03/19 15:19:03;;;;;;;;;;;18.70;1.00;;;;;;5101226;28;19999;-83
2024/03/19 15:21:30;;;;;;;;;;;18.80;1.00;;;;;;5091661;28;20267;-82
2024/03/19 15:24:33;;;;;;;;;;;18.80;1.00;;;;;;5100486;28;19944;-82
2024/03/19 15:27:33;;;;;;;;;;;18.80;1.00;;;;;;5103127;28;19965;-82
2024/03/19 15:30:15;;;;;;;;;;;18.40;1.00;;;;;;5094116;28;19913;-82
2024/03/19 15:35:43;;;;;;;;;;;18.30;1.00;;;;;;5098300;28;19931;-82
2024/03/19 15:38:09;;;;;;;;;;;18.50;1.00;;;;;;5091768;28;20363;-82
2024/03/19 15:41:03;;;;;;;;;;;18.30;1.00;;;;;;5096382;28;19922;-77
2024/03/19 15:43:33;;;;;;;;;;;18.20;1.00;;;;;;5076700;28;19966;-76
2024/03/19 15:45:58;;;;;;;;;;;18.40;1.00;;;;;;5133298;27;19912;-77
2024/03/19 15:48:27;;;;;;;;;;;19.20;1.00;;;;;;5097775;28;19920;-76
2024/03/19 15:51:03;;;;;;;;;;;19.40;1.00;;;;;;5099620;28;20287;-77
2024/03/19 15:53:34;;;;;;;;;;;19.60;1.00;;;;;;5108652;28;20278;-76
2024/03/19 15:56:08;;;;;;;;;;;20.20;1.00;;;;;;5111705;28;19914;-76